Time;durP1;ratioP1;P1;durP2;ratioP2;P2;SDS_P1;SDS_P2;PMS_P1;PMS_P2;Temp;Humidity;BMP_temperature;BMP_pressure;BME280_temperature;BME280_humidity;BME280_pressure;Samples;Min_cycle;Max_cycle;Signal;HPM_P1;HPM_P2
2022/09/11 00:02:40;;;;;;;0.75;0.10;;;18.60;57.30;20.70;94145.00;;;;10556936;27;45261;-61
2022/09/11 00:08:01;;;;;;;1.17;0.05;;;18.60;57.30;20.70;94147.00;;;;10538161;27;45179;-61
2022/09/11 00:13:23;;;;;;;0.17;0.10;;;18.60;57.40;20.70;94153.00;;;;10540452;27;45296;-61
2022/09/11 00:18:45;;;;;;;0.88;0.20;;;18.60;57.30;20.70;94143.00;;;;10514326;27;45135;-61
2022/09/11 00:24:08;;;;;;;0.65;0.13;;;18.60;57.30;20.70;94150.00;;;;10513503;27;45210;-61
2022/09/11 00:29:31;;;;;;;0.20;0.17;;;18.50;57.20;20.70;94157.00;;;;10531166;27;45230;-61
2022/09/11 00:34:53;;;;;;;0.20;0.10;;;18.50;57.30;20.70;94136.00;;;;10539958;27;45149;-61
2022/09/11 00:40:14;;;;;;;0.45;0.10;;;18.50;57.30;20.60;94139.00;;;;10514344;27;45816;-61
2022/09/11 00:45:35;;;;;;;0.28;0.13;;;18.50;57.20;20.60;94154.00;;;;10514534;27;45903;-60
2022/09/11 00:51:00;;;;;;;0.20;0.10;;;18.50;57.20;20.60;94143.00;;;;10514801;27;45136;-61
2022/09/11 00:56:23;;;;;;;0.32;0.32;;;18.50;57.20;20.60;94148.00;;;;10513749;27;45329;-61
2022/09/11 01:01:44;;;;;;;0.20;0.08;;;18.50;57.20;20.60;94137.00;;;;10538259;27;45380;-61
2022/09/11 01:07:06;;;;;;;0.68;0.10;;;18.50;57.90;20.60;94117.00;;;;10541944;27;45283;-61
2022/09/11 01:12:35;;;;;;;0.20;0.10;;;18.50;57.20;20.60;94121.00;;;;10538450;27;45804;-61
2022/09/11 01:18:04;;;;;;;0.10;0.10;;;18.50;57.20;20.60;94131.00;;;;10512974;27;45223;-59
2022/09/11 01:23:53;;;;;;;0.20;0.05;;;18.50;57.20;20.60;94127.00;;;;10512788;27;45848;-61
2022/09/11 01:29:20;;;;;;;0.20;0.15;;;18.50;57.20;20.60;94124.00;;;;10541738;27;45254;-61
2022/09/11 01:34:47;;;;;;;0.40;0.10;;;18.50;57.20;20.60;94124.00;;;;10539425;27;45233;-61
2022/09/11 01:40:19;;;;;;;0.20;0.10;;;18.50;57.20;20.60;94124.00;;;;10512635;27;45151;-61
2022/09/11 01:45:44;;;;;;;0.20;0.10;;;18.50;57.20;20.60;94125.00;;;;10543016;27;45727;-61
2022/09/11 01:51:09;;;;;;;1.08;0.28;;;18.50;57.20;20.60;94128.00;;;;10554207;27;45251;-61
2022/09/11 01:56:35;;;;;;;0.35;0.17;;;18.50;57.20;20.60;94119.00;;;;10554675;27;45209;-61
2022/09/11 02:02:01;;;;;;;0.32;0.00;;;18.50;57.20;20.60;94113.00;;;;10553700;27;45238;-61
2022/09/11 02:07:27;;;;;;;0.43;0.10;;;18.50;57.20;20.60;94112.00;;;;10539242;27;45881;-61
2022/09/11 02:12:58;;;;;;;0.10;0.00;;;18.50;57.20;20.60;94120.00;;;;10536407;27;45125;-61
2022/09/11 02:18:25;;;;;;;0.17;0.10;;;18.50;57.20;20.60;94115.00;;;;10510412;27;45806;-61
2022/09/11 02:23:46;;;;;;;0.10;0.10;;;18.50;57.20;20.60;94125.00;;;;10511153;27;45184;-60
2022/09/11 02:29:07;;;;;;;0.45;0.10;;;18.50;57.20;20.60;94139.00;;;;10537822;27;45221;-61
2022/09/11 02:34:33;;;;;;;0.30;0.20;;;18.50;57.20;20.60;94134.00;;;;10539742;27;45135;-60
2022/09/11 02:40:25;;;;;;;0.20;0.10;;;18.40;57.20;20.60;94132.00;;;;10510664;27;45243;-61
2022/09/11 02:45:57;;;;;;;0.10;0.10;;;18.50;57.30;20.60;94136.00;;;;10512700;27;45393;-60
2022/09/11 02:51:30;;;;;;;0.57;0.20;;;18.50;57.20;20.60;94134.00;;;;10517604;27;45220;-61
2022/09/11 02:57:01;;;;;;;0.93;0.10;;;18.50;57.30;20.60;94119.00;;;;10547324;27;45152;-61
2022/09/11 03:02:24;;;;;;;0.30;0.20;;;18.50;57.30;20.60;94119.00;;;;10559270;27;45222;-61
2022/09/11 03:07:46;;;;;;;0.55;0.10;;;18.50;57.20;20.60;94117.00;;;;10559742;27;45182;-60
2022/09/11 03:13:06;;;;;;;0.15;0.08;;;18.50;57.30;20.60;94130.00;;;;10547149;27;45348;-61
2022/09/11 03:18:27;;;;;;;0.40;0.00;;;18.40;57.20;20.60;94120.00;;;;10516877;27;45390;-61
2022/09/11 03:23:48;;;;;;;0.73;0.25;;;18.40;57.20;20.60;94117.00;;;;10516723;27;45193;-59
2022/09/11 03:29:09;;;;;;;0.35;0.10;;;18.40;57.20;20.60;94128.00;;;;10544182;27;45249;-61
2022/09/11 03:34:30;;;;;;;0.05;0.05;;;18.40;57.20;20.60;94117.00;;;;10545157;27;45844;-60
2022/09/11 03:39:53;;;;;;;0.40;0.13;;;18.50;57.30;20.60;94112.00;;;;10516033;27;45293;-61
2022/09/11 03:45:14;;;;;;;0.17;0.10;;;18.40;57.90;20.60;94098.00;;;;10515693;27;45174;-61
2022/09/11 03:50:34;;;;;;;0.35;0.10;;;18.40;57.30;20.50;94086.00;;;;10515715;27;45204;-61
2022/09/11 03:55:56;;;;;;;0.35;0.10;;;18.50;57.30;20.60;94110.00;;;;10516409;27;45874;-61
2022/09/11 04:01:18;;;;;;;0.08;0.08;;;18.40;57.30;20.60;94109.00;;;;10515524;27;45109;-60
2022/09/11 04:06:39;;;;;;;0.32;0.10;;;18.40;57.30;20.50;94105.00;;;;10515019;27;45179;-60
2022/09/11 04:12:02;;;;;;;0.60;0.10;;;18.40;57.30;20.50;94088.00;;;;10529608;27;46182;-61
2022/09/11 04:17:23;;;;;;;0.10;0.10;;;18.40;57.30;20.60;94098.00;;;;10532723;27;45801;-61
2022/09/11 04:22:43;;;;;;;0.13;0.00;;;18.40;57.30;20.60;94108.00;;;;10514834;27;45231;-60
2022/09/11 04:28:05;;;;;;;0.95;0.20;;;18.40;57.30;20.50;94106.00;;;;10533261;27;45769;-61
2022/09/11 04:33:25;;;;;;;1.38;0.13;;;18.40;57.30;20.60;94104.00;;;;10552268;27;45297;-61
2022/09/11 04:38:47;;;;;;;1.38;0.20;;;18.40;57.30;20.50;94104.00;;;;10514048;27;45201;-61
2022/09/11 04:44:09;;;;;;;0.20;0.10;;;18.40;57.30;20.50;94106.00;;;;10514078;27;45161;-60
2022/09/11 04:49:31;;;;;;;0.10;0.10;;;18.40;57.30;20.50;94110.00;;;;10513441;27;45230;-61
2022/09/11 04:54:51;;;;;;;0.10;0.10;;;18.40;57.30;20.50;94116.00;;;;10513775;27;45232;-61
2022/09/11 05:00:15;;;;;;;0.13;0.10;;;18.40;57.20;20.50;94110.00;;;;10513604;27;45162;-61
2022/09/11 05:05:36;;;;;;;2.45;0.10;;;18.40;57.30;20.50;94129.00;;;;10512583;27;45194;-61
2022/09/11 05:10:56;;;;;;;0.40;0.10;;;18.40;57.30;20.50;94129.00;;;;10521778;27;45182;-61
2022/09/11 05:16:18;;;;;;;0.15;0.00;;;18.40;57.20;20.50;94138.00;;;;10525918;27;45547;-61
2022/09/11 05:21:39;;;;;;;0.43;0.15;;;18.40;57.30;20.50;94148.00;;;;10513923;27;45122;-61
2022/09/11 05:27:00;;;;;;;0.50;0.22;;;18.40;57.30;20.50;94158.00;;;;10521404;27;45866;-60
2022/09/11 05:32:23;;;;;;;0.15;0.10;;;18.40;57.30;20.50;94164.00;;;;10555113;27;45206;-61
2022/09/11 05:37:43;;;;;;;0.35;0.10;;;18.40;57.30;20.50;94182.00;;;;10513551;27;45297;-60
2022/09/11 05:43:03;;;;;;;0.38;0.15;;;18.40;57.30;20.50;94179.00;;;;10512586;27;45679;-60
2022/09/11 05:48:28;;;;;;;0.47;0.00;;;18.40;57.30;20.60;94188.00;;;;10520076;27;45222;-61
2022/09/11 05:53:52;;;;;;;0.63;0.20;;;18.40;57.20;20.50;94191.00;;;;10518400;27;45256;-61
2022/09/11 05:59:14;;;;;;;0.75;0.13;;;18.40;57.20;20.50;94202.00;;;;10511456;27;45207;-61
2022/09/11 06:04:36;;;;;;;0.35;0.00;;;18.40;57.20;20.50;94195.00;;;;10526057;27;45253;-60
2022/09/11 06:09:58;;;;;;;0.40;0.20;;;18.40;57.20;20.50;94225.00;;;;10512685;27;45233;-61
2022/09/11 06:15:18;;;;;;;0.30;0.10;;;18.40;57.20;20.50;94223.00;;;;10512260;27;46091;-61
2022/09/11 06:20:41;;;;;;;0.20;0.17;;;18.40;57.20;20.50;94213.00;;;;10513337;27;45245;-61
2022/09/11 06:26:07;;;;;;;0.22;0.10;;;18.30;57.20;20.50;94222.00;;;;10519455;27;45244;-61
2022/09/11 06:31:28;;;;;;;0.20;0.10;;;18.40;57.30;20.50;94231.00;;;;10530981;27;45278;-61
2022/09/11 06:36:50;;;;;;;0.13;0.10;;;18.30;57.20;20.50;94229.00;;;;10518013;27;45927;-61
2022/09/11 06:42:11;;;;;;;0.38;0.10;;;18.40;57.30;20.50;94218.00;;;;10517993;27;45207;-61
2022/09/11 06:47:32;;;;;;;0.65;0.10;;;18.40;57.30;20.50;94213.00;;;;10522349;27;45366;-60
2022/09/11 06:52:54;;;;;;;0.00;0.00;;;18.40;57.30;20.50;94210.00;;;;10542297;27;45310;-61
2022/09/11 06:58:15;;;;;;;1.17;0.20;;;18.40;57.30;20.50;94211.00;;;;10524603;27;45320;-61
2022/09/11 07:03:36;;;;;;;0.63;0.20;;;18.40;57.30;20.50;94208.00;;;;10517850;27;45695;-61
2022/09/11 07:09:01;;;;;;;0.30;0.20;;;18.40;57.30;20.50;94200.00;;;;10517072;27;45353;-61
2022/09/11 07:14:22;;;;;;;0.55;0.10;;;18.40;57.20;20.50;94205.00;;;;10517385;27;45800;-61
2022/09/11 07:19:42;;;;;;;0.47;0.15;;;18.40;57.20;20.50;94209.00;;;;10542071;27;45471;-61
2022/09/11 07:25:06;;;;;;;0.35;0.17;;;18.40;57.20;20.50;94200.00;;;;10559251;27;45162;-60
2022/09/11 07:30:27;;;;;;;0.43;0.22;;;18.40;57.30;20.50;94209.00;;;;10530082;27;45870;-60
2022/09/11 07:35:47;;;;;;;1.00;0.30;;;18.30;57.20;20.50;94204.00;;;;10516857;28;45103;-61
2022/09/11 07:41:10;;;;;;;0.45;0.10;;;18.40;57.30;20.50;94214.00;;;;10517575;27;45264;-61
2022/09/11 07:46:31;;;;;;;0.88;0.15;;;18.40;57.40;20.50;94221.00;;;;10516636;27;45204;-61
2022/09/11 07:51:52;;;;;;;0.45;0.20;;;18.40;57.40;20.50;94222.00;;;;10516660;27;45374;-60
2022/09/11 07:57:14;;;;;;;0.43;0.10;;;18.40;57.40;20.50;94233.00;;;;10514057;27;45197;-61
2022/09/11 08:02:35;;;;;;;5.15;0.30;;;18.40;57.50;20.50;94228.00;;;;10515206;27;45188;-61
2022/09/11 08:07:56;;;;;;;0.30;0.20;;;18.40;57.40;20.50;94230.00;;;;10510286;27;45171;-61
2022/09/11 08:13:18;;;;;;;1.00;0.20;;;18.40;57.40;20.50;94219.00;;;;10514438;27;45205;-60
2022/09/11 08:18:39;;;;;;;0.40;0.20;;;18.40;57.40;20.50;94225.00;;;;10515138;27;45279;-61
2022/09/11 08:23:59;;;;;;;0.73;0.10;;;18.40;57.30;20.50;94237.00;;;;10536532;27;45203;-61
2022/09/11 08:29:21;;;;;;;2.17;0.38;;;18.40;57.40;20.50;94214.00;;;;10534219;27;45197;-61
2022/09/11 08:34:42;;;;;;;0.40;0.20;;;18.40;57.40;20.50;94214.00;;;;10513302;27;45297;-60
2022/09/11 08:40:02;;;;;;;4.15;0.35;;;18.40;57.50;20.50;94220.00;;;;10514358;27;45477;-62
2022/09/11 08:45:31;;;;;;;2.97;0.28;;;18.40;57.50;20.50;94217.00;;;;10513364;27;45234;-60
2022/09/11 08:50:52;;;;;;;0.30;0.10;;;18.40;57.50;20.50;94210.00;;;;10514483;27;45848;-60
2022/09/11 08:56:17;;;;;;;1.67;0.40;;;18.40;57.40;19.90;94218.00;;;;10507484;27;45287;-60
2022/09/11 09:01:47;;;;;;;0.20;0.20;;;17.90;54.80;19.60;94216.00;;;;10511709;27;45192;-58
2022/09/11 09:07:24;;;;;;;0.60;0.30;;;17.40;56.20;19.90;94217.00;;;;10513107;27;45814;-59
2022/09/11 09:12:53;;;;;;;1.00;0.40;;;17.70;55.80;19.80;94219.00;;;;10512664;27;45779;-58
2022/09/11 09:18:25;;;;;;;0.40;0.20;;;17.70;54.80;20.10;94214.00;;;;10510441;27;45226;-59
2022/09/11 09:23:52;;;;;;;1.08;0.30;;;17.90;55.00;20.20;94229.00;;;;10512637;27;45258;-60
2022/09/11 09:29:22;;;;;;;0.50;0.15;;;18.00;55.10;20.20;94226.00;;;;10532431;27;45195;-57
2022/09/11 09:34:45;;;;;;;0.32;0.30;;;18.10;55.30;20.30;94225.00;;;;10513139;28;45156;-56
2022/09/11 09:40:09;;;;;;;0.30;0.10;;;18.10;55.40;20.30;94225.00;;;;10512395;27;46173;-60
2022/09/11 09:45:47;;;;;;;1.55;0.30;;;18.20;55.70;20.30;94222.00;;;;10540689;27;45127;-58
2022/09/11 09:51:14;;;;;;;0.63;0.13;;;18.20;56.10;20.40;94216.00;;;;10554977;27;45734;-57
2022/09/11 09:56:37;;;;;;;0.40;0.15;;;18.20;56.10;20.40;94217.00;;;;10541516;27;45281;-59
2022/09/11 10:01:58;;;;;;;0.20;0.20;;;18.30;56.20;20.40;94213.00;;;;10515294;27;45324;-58
2022/09/11 10:07:23;;;;;;;0.45;0.22;;;18.30;56.30;20.40;94212.00;;;;10506100;27;45241;-58
2022/09/11 10:12:45;;;;;;;2.70;0.30;;;18.30;56.50;20.40;94215.00;;;;10510685;27;45696;-58
2022/09/11 10:18:36;;;;;;;0.10;0.10;;;18.30;56.70;20.40;94209.00;;;;10542774;27;45278;-58
2022/09/11 10:24:00;;;;;;;0.57;0.20;;;18.30;57.00;20.50;94217.00;;;;10553774;27;45324;-59
2022/09/11 10:29:24;;;;;;;1.00;0.32;;;18.40;57.20;20.50;94212.00;;;;10536471;27;45189;-59
2022/09/11 10:34:45;;;;;;;0.63;0.22;;;18.40;57.30;20.50;94196.00;;;;10511180;27;45228;-58
2022/09/11 10:40:20;;;;;;;0.80;0.43;;;18.40;57.30;20.50;94206.00;;;;10510827;27;45228;-59
2022/09/11 10:45:40;;;;;;;2.90;0.47;;;18.40;57.30;20.50;94214.00;;;;10510174;27;45696;-59
2022/09/11 10:51:06;;;;;;;1.75;0.52;;;18.40;57.40;20.50;94218.00;;;;10510576;27;45195;-60
2022/09/11 10:56:28;;;;;;;3.15;0.45;;;18.40;57.40;20.50;94221.00;;;;10508969;27;45309;-58
2022/09/11 11:01:50;;;;;;;0.95;0.43;;;18.40;57.50;20.60;94206.00;;;;10541021;27;45328;-59
2022/09/11 11:07:27;;;;;;;1.55;0.40;;;18.50;57.50;20.60;94204.00;;;;10554913;27;45252;-58
2022/09/11 11:13:06;;;;;;;2.78;0.50;;;18.50;57.30;20.60;94211.00;;;;10559878;27;45206;-58
2022/09/11 11:18:46;;;;;;;2.65;0.60;;;18.50;57.40;20.60;94216.00;;;;10560257;27;45398;-59
2022/09/11 11:24:24;;;;;;;2.28;0.70;;;18.50;57.50;20.70;94197.00;;;;10539272;27;45753;-59
2022/09/11 11:30:10;;;;;;;3.00;0.52;;;18.60;57.60;20.70;94212.00;;;;10537641;27;45238;-59
2022/09/11 11:35:39;;;;;;;1.05;0.65;;;18.60;57.60;20.70;94206.00;;;;10545045;27;45202;-58
2022/09/11 11:41:06;;;;;;;2.70;0.60;;;18.60;57.70;20.70;94203.00;;;;10518027;28;45115;-59
2022/09/11 11:46:36;;;;;;;1.55;0.63;;;18.60;57.70;20.70;94204.00;;;;10517268;27;45793;-57
2022/09/11 11:52:05;;;;;;;1.98;0.70;;;18.60;57.70;20.70;94203.00;;;;10544681;27;45153;-57
2022/09/11 11:57:32;;;;;;;2.25;0.52;;;18.60;57.70;20.70;94206.00;;;;10514937;27;45216;-59
2022/09/11 12:03:00;;;;;;;1.77;0.50;;;18.60;57.70;20.80;94200.00;;;;10530722;27;45265;-58
2022/09/11 12:08:22;;;;;;;1.73;0.63;;;18.60;57.60;20.70;94200.00;;;;10538031;27;45902;-58
2022/09/11 12:13:47;;;;;;;2.47;0.50;;;18.70;57.70;20.70;94186.00;;;;10528574;27;45306;-59
2022/09/11 12:19:18;;;;;;;1.55;0.38;;;18.60;57.70;20.80;94191.00;;;;10523189;27;45258;-59
2022/09/11 12:24:57;;;;;;;0.77;0.30;;;18.70;57.70;20.80;94164.00;;;;10515846;27;45794;-58
2022/09/11 12:30:27;;;;;;;1.45;0.40;;;18.70;57.50;20.90;94183.00;;;;10553564;27;45270;-59
2022/09/11 12:35:52;;;;;;;2.03;0.47;;;18.80;57.30;20.80;94180.00;;;;10532363;27;45592;-60
2022/09/11 12:41:16;;;;;;;2.92;0.50;;;18.80;58.20;20.80;94182.00;;;;10528138;27;45242;-59
2022/09/11 12:47:15;;;;;;;1.20;0.50;;;18.70;57.60;20.90;94164.00;;;;10513770;28;45745;-59
2022/09/11 12:52:47;;;;;;;0.63;0.30;;;18.80;57.60;20.90;94176.00;;;;10425191;28;45312;-59
2022/09/11 12:58:27;;;;;;;4.13;0.50;;;18.80;57.70;20.90;94169.00;;;;10505503;27;45693;-59
2022/09/11 13:04:02;;;;;;;1.27;0.50;;;18.80;57.70;20.90;94156.00;;;;10513640;27;45544;-60
2022/09/11 13:09:28;;;;;;;1.55;0.40;;;18.80;57.70;20.90;94148.00;;;;10540561;27;45452;-58
2022/09/11 13:14:50;;;;;;;0.57;0.40;;;18.80;57.70;20.90;94147.00;;;;10512996;27;45762;-59
2022/09/11 13:20:22;;;;;;;3.67;0.60;;;18.80;57.70;20.90;94144.00;;;;10512569;27;45189;-59
2022/09/11 13:25:44;;;;;;;1.27;0.40;;;18.80;57.70;20.90;94130.00;;;;10512297;27;45926;-56
2022/09/11 13:31:05;;;;;;;1.35;0.52;;;18.80;57.60;21.00;94138.00;;;;10511452;28;45205;-58
2022/09/11 13:36:25;;;;;;;1.23;0.50;;;18.90;57.70;21.00;94123.00;;;;10511921;28;45818;-60
2022/09/11 13:41:51;;;;;;;1.50;0.47;;;18.90;57.70;21.00;94128.00;;;;10535734;27;45277;-59
2022/09/11 13:47:19;;;;;;;2.60;0.70;;;18.90;57.60;21.00;94120.00;;;;10535141;27;45181;-58
2022/09/11 13:52:42;;;;;;;1.15;0.40;;;18.90;57.60;21.00;94125.00;;;;10512567;27;45951;-59
2022/09/11 13:58:24;;;;;;;4.25;0.63;;;18.90;57.60;21.00;94111.00;;;;10510884;27;45314;-58
2022/09/11 14:03:47;;;;;;;2.03;0.40;;;18.90;57.60;21.10;94121.00;;;;10512258;27;45274;-58
2022/09/11 14:09:20;;;;;;;1.10;0.40;;;18.90;57.60;21.10;94103.00;;;;10511315;27;45183;-58
2022/09/11 14:14:45;;;;;;;2.80;0.47;;;19.00;57.50;21.10;94090.00;;;;10540387;27;45209;-59
2022/09/11 14:20:18;;;;;;;1.63;0.60;;;19.00;57.50;21.10;94088.00;;;;10553788;27;45803;-59
2022/09/11 14:26:03;;;;;;;2.38;0.52;;;19.00;57.50;21.10;94100.00;;;;10549430;27;45278;-59
2022/09/11 14:31:36;;;;;;;2.10;0.40;;;19.00;57.50;21.10;94088.00;;;;10511225;27;45893;-57
2022/09/11 14:37:02;;;;;;;0.57;0.30;;;19.00;57.60;21.00;94073.00;;;;10510701;27;45404;-59
2022/09/11 14:42:27;;;;;;;1.52;0.45;;;18.90;57.60;21.10;94081.00;;;;10543774;27;45158;-59
2022/09/11 14:47:49;;;;;;;2.30;0.20;;;18.90;57.60;21.10;94084.00;;;;10543153;27;45442;-58
2022/09/11 14:53:17;;;;;;;1.00;0.30;;;19.00;57.50;21.10;94092.00;;;;10518240;27;45530;-58
2022/09/11 14:58:38;;;;;;;1.00;0.30;;;19.00;57.50;21.10;94101.00;;;;10547582;27;45202;-59
2022/09/11 15:04:01;;;;;;;2.25;0.30;;;19.00;57.50;21.10;94078.00;;;;10560298;27;45758;-59
2022/09/11 15:09:23;;;;;;;1.50;0.50;;;19.00;57.40;21.20;94084.00;;;;10559601;27;45193;-59
2022/09/11 15:14:44;;;;;;;1.83;0.43;;;19.00;57.40;21.20;94075.00;;;;10560122;27;45360;-57
2022/09/11 15:20:09;;;;;;;1.77;0.45;;;19.00;57.30;21.20;94069.00;;;;10558804;27;45714;-60
2022/09/11 15:25:31;;;;;;;0.90;0.38;;;19.10;57.30;21.20;94068.00;;;;10560059;27;45346;-59
2022/09/11 15:30:57;;;;;;;2.22;0.32;;;19.10;57.30;21.20;94060.00;;;;10514846;28;45696;-58
2022/09/11 15:36:20;;;;;;;1.53;0.50;;;19.10;57.20;21.20;94050.00;;;;10515604;28;45798;-58
2022/09/11 15:41:42;;;;;;;2.30;0.25;;;19.10;57.20;21.30;94057.00;;;;10540368;27;45189;-59
2022/09/11 15:47:03;;;;;;;1.40;0.43;;;19.10;57.10;21.30;94054.00;;;;10545981;27;45207;-59
2022/09/11 15:52:26;;;;;;;2.33;0.40;;;19.20;57.20;21.30;94060.00;;;;10515796;27;45766;-59
2022/09/11 15:57:46;;;;;;;0.70;0.20;;;19.20;57.10;21.30;94058.00;;;;10514263;27;45228;-59
2022/09/11 16:03:07;;;;;;;2.72;0.30;;;19.20;57.00;21.30;94063.00;;;;10515470;27;45221;-59
2022/09/11 16:08:29;;;;;;;1.05;0.30;;;19.20;56.90;21.30;94054.00;;;;10515071;27;45488;-60
2022/09/11 16:13:50;;;;;;;0.80;0.40;;;19.20;56.90;21.30;94056.00;;;;10512971;27;45373;-59
2022/09/11 16:19:10;;;;;;;1.52;0.40;;;19.20;57.00;21.30;94051.00;;;;10511777;27;45214;-59
2022/09/11 16:24:36;;;;;;;1.15;0.40;;;19.20;57.00;21.30;94053.00;;;;10514863;27;45773;-59
2022/09/11 16:29:56;;;;;;;0.98;0.40;;;19.20;57.10;21.30;94047.00;;;;10549455;27;45677;-57
2022/09/11 16:35:17;;;;;;;0.40;0.17;;;19.20;57.00;21.30;94050.00;;;;10536694;27;45773;-57
2022/09/11 16:40:39;;;;;;;0.80;0.40;;;19.20;57.00;21.30;94039.00;;;;10538968;27;45270;-58
2022/09/11 16:46:00;;;;;;;1.00;0.40;;;19.20;57.00;21.30;94023.00;;;;10547355;27;45769;-57
2022/09/11 16:51:22;;;;;;;1.02;0.40;;;19.10;57.20;21.30;94031.00;;;;10518867;27;45285;-58
2022/09/11 16:56:44;;;;;;;0.43;0.20;;;19.10;57.30;21.20;94050.00;;;;10511934;27;45283;-58
2022/09/11 17:02:05;;;;;;;0.43;0.22;;;19.10;57.30;21.20;94039.00;;;;10512900;27;45721;-58
2022/09/11 17:07:25;;;;;;;0.60;0.40;;;19.10;57.30;21.20;94035.00;;;;10511916;27;45273;-57
2022/09/11 17:12:48;;;;;;;0.93;0.30;;;19.10;57.30;21.20;94028.00;;;;10513654;27;45768;-58
2022/09/11 17:18:09;;;;;;;0.45;0.28;;;19.00;57.30;21.10;94028.00;;;;10512854;27;45245;-57
2022/09/11 17:23:30;;;;;;;0.80;0.32;;;19.10;57.50;21.10;94022.00;;;;10533957;27;45185;-58
2022/09/11 17:28:53;;;;;;;0.20;0.20;;;19.00;57.50;21.10;94026.00;;;;10553152;27;45758;-57
2022/09/11 17:34:14;;;;;;;0.40;0.28;;;19.00;57.50;21.10;94023.00;;;;10543135;27;45209;-58
2022/09/11 17:39:35;;;;;;;0.40;0.20;;;19.00;57.60;21.10;94016.00;;;;10512556;27;45157;-57
2022/09/11 17:44:57;;;;;;;2.60;0.30;;;19.00;57.50;21.10;94023.00;;;;10511926;27;45531;-59
2022/09/11 17:50:17;;;;;;;0.52;0.20;;;19.00;57.40;21.10;94009.00;;;;10536053;27;45878;-58
2022/09/11 17:55:39;;;;;;;1.20;0.30;;;19.00;57.30;21.10;94031.00;;;;10510626;27;45426;-58
2022/09/11 18:01:01;;;;;;;0.95;0.20;;;19.00;57.30;21.10;94041.00;;;;10511228;27;45238;-58
2022/09/11 18:06:27;;;;;;;2.53;0.30;;;19.00;57.40;21.10;94031.00;;;;10511260;27;45163;-58
2022/09/11 18:11:49;;;;;;;1.10;0.17;;;18.90;57.50;21.10;94046.00;;;;10511160;27;45187;-58
2022/09/11 18:17:11;;;;;;;0.20;0.10;;;18.90;57.60;21.00;94045.00;;;;10509785;27;46052;-58
2022/09/11 18:22:36;;;;;;;0.15;0.15;;;18.90;57.70;21.00;94040.00;;;;10522675;27;45255;-58
2022/09/11 18:27:58;;;;;;;2.00;0.22;;;18.90;57.70;21.00;94040.00;;;;10552831;27;45800;-58
2022/09/11 18:33:19;;;;;;;0.60;0.22;;;18.80;57.60;21.00;94044.00;;;;10549161;27;45820;-57
2022/09/11 18:38:40;;;;;;;0.90;0.22;;;18.80;57.60;21.00;94053.00;;;;10509948;27;45162;-58
2022/09/11 18:44:03;;;;;;;0.55;0.20;;;18.80;57.60;21.00;94058.00;;;;10510523;27;45222;-57
2022/09/11 18:49:25;;;;;;;0.40;0.20;;;18.80;57.70;21.00;94061.00;;;;10526651;27;45870;-58
2022/09/11 18:54:45;;;;;;;0.30;0.20;;;18.80;57.70;20.90;94056.00;;;;10509040;27;45211;-58
2022/09/11 19:00:12;;;;;;;0.30;0.20;;;18.80;57.70;21.00;94061.00;;;;10538417;27;45226;-58
2022/09/11 19:05:34;;;;;;;0.43;0.28;;;18.80;57.80;20.90;94062.00;;;;10551652;27;45134;-59
2022/09/11 19:10:54;;;;;;;0.17;0.10;;;18.80;57.80;20.90;94050.00;;;;10551909;27;45189;-59
2022/09/11 19:16:17;;;;;;;0.38;0.22;;;18.80;57.80;20.90;94057.00;;;;10551861;27;45889;-58
2022/09/11 19:21:39;;;;;;;0.75;0.20;;;18.80;57.80;20.90;94067.00;;;;10552040;27;45188;-57
2022/09/11 19:26:59;;;;;;;0.20;0.10;;;18.80;57.80;20.90;94062.00;;;;10519553;27;45296;-58
2022/09/11 19:32:22;;;;;;;0.38;0.25;;;18.80;57.80;20.90;94077.00;;;;10558434;27;45789;-58
2022/09/11 19:37:46;;;;;;;0.10;0.10;;;18.70;57.80;20.90;94074.00;;;;10516979;27;45958;-58
2022/09/11 19:43:07;;;;;;;0.30;0.20;;;18.70;57.80;20.90;94079.00;;;;10515946;27;45210;-58
2022/09/11 19:48:27;;;;;;;0.28;0.20;;;18.70;57.80;20.90;94078.00;;;;10531153;27;45296;-58
2022/09/11 19:53:52;;;;;;;0.10;0.10;;;18.70;57.80;20.90;94087.00;;;;10515046;27;45166;-58
2022/09/11 19:59:13;;;;;;;0.35;0.10;;;18.70;57.90;20.90;94093.00;;;;10515332;27;45229;-58
2022/09/11 20:04:34;;;;;;;0.10;0.10;;;18.70;57.80;20.90;94093.00;;;;10515487;27;45204;-58
2022/09/11 20:09:55;;;;;;;0.43;0.20;;;18.70;57.80;20.90;94091.00;;;;10512791;27;45307;-58
2022/09/11 20:15:16;;;;;;;0.75;0.20;;;18.70;57.80;20.90;94079.00;;;;10512261;27;45209;-58
2022/09/11 20:20:39;;;;;;;0.57;0.20;;;18.70;57.70;20.80;94082.00;;;;10514752;27;45176;-60
2022/09/11 20:26:09;;;;;;;0.80;0.25;;;18.70;57.80;20.90;94081.00;;;;10516606;27;45429;-59
2022/09/11 20:31:34;;;;;;;0.40;0.20;;;18.70;57.80;20.80;94086.00;;;;10557424;27;45687;-58
2022/09/11 20:36:55;;;;;;;0.28;0.20;;;18.70;57.80;20.80;94091.00;;;;10522528;27;45258;-57
2022/09/11 20:42:17;;;;;;;0.47;0.20;;;18.70;57.80;20.80;94086.00;;;;10541853;27;45228;-59
2022/09/11 20:47:37;;;;;;;0.13;0.10;;;18.70;57.80;20.80;94085.00;;;;10549784;27;45165;-59
2022/09/11 20:52:58;;;;;;;0.40;0.30;;;18.70;57.80;20.80;94077.00;;;;10517841;27;45881;-58
2022/09/11 20:58:20;;;;;;;0.20;0.15;;;18.70;57.80;20.80;94081.00;;;;10511894;27;45221;-59
2022/09/11 21:03:46;;;;;;;0.50;0.10;;;18.60;57.70;20.80;94085.00;;;;10513491;27;45476;-58
2022/09/11 21:09:10;;;;;;;0.35;0.10;;;18.70;57.80;20.80;94070.00;;;;10512421;27;45436;-59
2022/09/11 21:14:32;;;;;;;0.32;0.10;;;18.70;57.80;20.80;94069.00;;;;10512628;27;45274;-58
2022/09/11 21:19:53;;;;;;;0.20;0.10;;;18.70;57.70;20.80;94079.00;;;;10513142;27;45248;-60
2022/09/11 21:25:13;;;;;;;0.55;0.25;;;18.70;57.80;20.80;94080.00;;;;10535525;27;45177;-59
2022/09/11 21:30:37;;;;;;;0.30;0.15;;;18.70;57.70;20.80;94078.00;;;;10554809;27;45557;-59
2022/09/11 21:35:58;;;;;;;0.17;0.15;;;18.60;57.60;20.80;94071.00;;;;10528076;27;45104;-58
2022/09/11 21:41:19;;;;;;;0.25;0.20;;;18.60;57.60;20.80;94074.00;;;;10512592;27;45249;-60
2022/09/11 21:46:41;;;;;;;0.35;0.20;;;18.60;57.60;20.80;94054.00;;;;10512136;27;45205;-59
2022/09/11 21:52:02;;;;;;;0.30;0.20;;;18.70;57.60;20.70;94052.00;;;;10528341;27;45273;-58
2022/09/11 21:57:27;;;;;;;0.30;0.10;;;18.60;57.60;20.80;94054.00;;;;10510045;27;45823;-58
2022/09/11 22:02:49;;;;;;;0.15;0.10;;;18.70;57.60;20.80;94066.00;;;;10511374;27;45318;-59
2022/09/11 22:08:10;;;;;;;0.28;0.20;;;18.60;57.50;20.80;94056.00;;;;10510604;27;45304;-58
2022/09/11 22:13:34;;;;;;;0.20;0.20;;;18.60;57.60;20.80;94060.00;;;;10511296;27;45300;-59
2022/09/11 22:18:56;;;;;;;0.20;0.20;;;18.60;57.50;20.70;94053.00;;;;10510729;27;45229;-59
2022/09/11 22:24:18;;;;;;;0.22;0.10;;;18.60;57.50;20.70;94048.00;;;;10510103;27;45132;-59
2022/09/11 22:29:39;;;;;;;0.17;0.10;;;18.60;57.40;20.80;94047.00;;;;10542646;27;45262;-59
2022/09/11 22:35:01;;;;;;;0.47;0.20;;;18.60;57.40;20.70;94054.00;;;;10534871;27;45333;-57
2022/09/11 22:40:21;;;;;;;0.20;0.13;;;18.60;57.40;20.70;94039.00;;;;10510388;27;45195;-57
2022/09/11 22:45:49;;;;;;;0.30;0.20;;;18.60;57.40;20.70;94021.00;;;;10510147;27;45840;-57
2022/09/11 22:51:11;;;;;;;0.20;0.10;;;18.60;57.40;20.70;94031.00;;;;10533732;27;45487;-58
2022/09/11 22:56:32;;;;;;;0.10;0.10;;;18.60;57.40;20.70;94041.00;;;;10508217;27;45388;-59
2022/09/11 23:01:52;;;;;;;0.38;0.30;;;18.60;57.40;20.70;94041.00;;;;10511433;27;45830;-58
2022/09/11 23:07:15;;;;;;;0.20;0.20;;;18.60;57.40;20.70;94033.00;;;;10516402;27;45248;-59
2022/09/11 23:12:36;;;;;;;0.30;0.20;;;18.60;57.30;20.70;94039.00;;;;10516945;27;45672;-58
2022/09/11 23:17:57;;;;;;;0.20;0.17;;;18.60;57.30;20.70;94022.00;;;;10516473;27;45700;-57
2022/09/11 23:23:19;;;;;;;0.45;0.20;;;18.60;57.30;20.70;94030.00;;;;10517444;27;45110;-58
2022/09/11 23:28:40;;;;;;;0.40;0.10;;;18.60;57.30;20.70;94014.00;;;;10539454;27;45435;-59
2022/09/11 23:34:04;;;;;;;0.20;0.20;;;18.60;57.30;20.70;94015.00;;;;10549285;27;45314;-59
2022/09/11 23:39:26;;;;;;;0.63;0.10;;;18.60;57.30;20.70;94025.00;;;;10516071;27;45735;-59
2022/09/11 23:44:47;;;;;;;0.20;0.17;;;18.60;57.30;20.70;93999.00;;;;10534710;27;46231;-59